createdAt,value
2023-01-27T00:01:17.287Z,23.20
2023-01-27T00:03:45.800Z,34.50
2023-01-27T00:06:13.884Z,28.90
2023-01-27T00:08:41.914Z,27.50
2023-01-27T00:11:28.802Z,31.50
2023-01-27T00:13:56.784Z,32.40
2023-01-27T00:16:24.749Z,32.00
2023-01-27T00:18:52.691Z,32.20
2023-01-27T00:21:39.338Z,34.70
2023-01-27T00:24:30.722Z,31.80
2023-01-27T00:26:58.996Z,34.30
2023-01-27T00:29:26.953Z,35.00
2023-01-27T00:32:14.064Z,43.90
2023-01-27T00:34:42.464Z,38.00
2023-01-27T00:37:10.395Z,31.30
2023-01-27T00:39:38.292Z,34.90
2023-01-27T00:42:09.595Z,27.90
2023-01-27T00:44:37.612Z,43.70
2023-01-27T00:47:05.501Z,47.60
2023-01-27T00:49:33.423Z,34.80
2023-01-27T00:52:01.426Z,42.10
2023-01-27T00:54:29.369Z,42.90
2023-01-27T00:56:57.388Z,46.60
2023-01-27T00:59:25.442Z,42.70
2023-01-27T01:01:53.406Z,42.90
2023-01-27T01:04:21.325Z,51.20
2023-01-27T01:06:49.302Z,47.30
2023-01-27T01:09:17.499Z,37.10
2023-01-27T01:11:45.431Z,43.00
2023-01-27T01:14:13.307Z,41.00
2023-01-27T01:16:41.240Z,39.00
2023-01-27T01:19:09.241Z,40.20
2023-01-27T01:21:39.545Z,43.60
2023-01-27T01:24:08.861Z,43.60
2023-01-27T01:26:36.835Z,43.10
2023-01-27T01:29:04.683Z,39.70
2023-01-27T01:31:32.591Z,39.40
2023-01-27T01:34:00.432Z,40.20
2023-01-27T01:36:28.206Z,43.80
2023-01-27T01:38:56.885Z,42.20
2023-01-27T01:41:25.355Z,37.30
2023-01-27T01:43:53.251Z,38.70
2023-01-27T01:46:21.442Z,45.50
2023-01-27T01:48:55.846Z,39.60
2023-01-27T01:51:37.030Z,36.70
2023-01-27T01:54:09.986Z,39.10
2023-01-27T01:56:44.855Z,38.20
2023-01-27T01:59:31.474Z,39.30
2023-01-27T02:02:06.238Z,31.80
2023-01-27T02:04:43.171Z,37.70
2023-01-27T02:07:22.894Z,42.20
2023-01-27T02:09:50.957Z,36.40
2023-01-27T02:12:18.849Z,39.60
2023-01-27T02:14:46.641Z,38.00
2023-01-27T02:17:15.118Z,29.80
2023-01-27T02:19:59.997Z,37.00
2023-01-27T02:22:36.941Z,39.10
2023-01-27T02:25:12.303Z,36.80
2023-01-27T02:27:40.685Z,38.50
2023-01-27T02:30:09.542Z,42.90
2023-01-27T02:32:39.271Z,43.10
2023-01-27T02:35:12.400Z,40.50
2023-01-27T02:37:40.609Z,32.40
2023-01-27T02:40:09.737Z,31.20
2023-01-27T02:42:37.614Z,37.60
2023-01-27T02:45:05.984Z,38.70
2023-01-27T02:47:33.963Z,35.70
2023-01-27T02:50:02.096Z,34.40
2023-01-27T02:52:30.030Z,29.50
2023-01-27T02:54:57.829Z,31.60
2023-01-27T02:57:25.731Z,29.50
2023-01-27T02:59:54.003Z,32.00
2023-01-27T03:02:23.086Z,28.80
2023-01-27T03:04:51.114Z,34.00
2023-01-27T03:07:19.003Z,33.20
2023-01-27T03:09:46.823Z,29.00
2023-01-27T03:12:20.483Z,34.50
2023-01-27T03:15:07.984Z,29.60
2023-01-27T03:17:56.628Z,33.50
2023-01-27T03:20:29.881Z,30.20
2023-01-27T03:22:57.929Z,37.70
2023-01-27T03:25:25.867Z,40.70
2023-01-27T03:27:53.786Z,30.60
2023-01-27T03:30:22.012Z,35.20
2023-01-27T03:32:49.899Z,33.60
2023-01-27T03:35:18.340Z,32.60
2023-01-27T03:38:04.766Z,33.00
2023-01-27T03:40:51.169Z,35.10
2023-01-27T03:43:37.747Z,44.00
2023-01-27T03:46:18.687Z,37.70
2023-01-27T03:48:54.280Z,33.00
2023-01-27T03:51:24.576Z,37.70
2023-01-27T03:53:53.182Z,38.80
2023-01-27T03:56:22.026Z,34.70
2023-01-27T03:58:50.905Z,38.10
2023-01-27T04:01:24.199Z,39.70
2023-01-27T04:04:11.303Z,40.60
2023-01-27T04:07:03.091Z,39.10
2023-01-27T04:09:35.924Z,38.00
2023-01-27T04:12:06.138Z,37.10
2023-01-27T04:14:37.933Z,33.10
2023-01-27T04:17:07.491Z,36.80
2023-01-27T04:19:35.320Z,40.60
2023-01-27T04:22:03.713Z,40.00
2023-01-27T04:24:31.924Z,47.90
2023-01-27T04:27:03.139Z,37.00
2023-01-27T04:29:34.983Z,35.90
2023-01-27T04:32:06.062Z,38.50
2023-01-27T04:34:34.221Z,37.60
2023-01-27T04:37:03.683Z,33.90
2023-01-27T04:39:31.686Z,32.40
2023-01-27T04:41:59.701Z,42.20
2023-01-27T04:44:27.640Z,40.50
2023-01-27T04:46:55.520Z,35.00
2023-01-27T04:49:23.678Z,35.70
2023-01-27T04:51:51.589Z,41.80
2023-01-27T04:54:19.406Z,38.60
2023-01-27T04:57:01.408Z,32.90
2023-01-27T04:59:29.478Z,35.70
2023-01-27T05:01:57.811Z,37.90
2023-01-27T05:04:27.013Z,39.60
2023-01-27T05:06:55.169Z,41.20
2023-01-27T05:09:23.167Z,45.70
2023-01-27T05:11:51.152Z,37.00
2023-01-27T05:14:19.630Z,36.70
2023-01-27T05:16:47.556Z,35.80
2023-01-27T05:19:15.553Z,39.10
2023-01-27T05:21:44.542Z,32.30
2023-01-27T05:24:14.745Z,41.90
2023-01-27T05:26:42.881Z,34.40
2023-01-27T05:29:10.747Z,42.90
2023-01-27T05:31:38.962Z,41.10
2023-01-27T05:34:07.076Z,36.70
2023-01-27T05:36:35.193Z,38.70
2023-01-27T05:39:03.177Z,42.40
2023-01-27T05:41:33.301Z,38.70
2023-01-27T05:44:01.357Z,39.80
2023-01-27T05:46:31.137Z,41.40
2023-01-27T05:49:01.114Z,44.70
2023-01-27T05:51:31.408Z,37.20
2023-01-27T05:53:59.884Z,34.50
2023-01-27T05:56:27.944Z,41.60
2023-01-27T05:58:57.016Z,43.70
2023-01-27T06:01:30.770Z,43.30
2023-01-27T06:03:59.013Z,42.10
2023-01-27T06:06:28.614Z,48.10
2023-01-27T06:08:59.910Z,45.10
2023-01-27T06:11:28.018Z,42.70
2023-01-27T06:13:56.081Z,43.40
2023-01-27T06:16:24.386Z,38.50
2023-01-27T06:18:52.439Z,44.60
2023-01-27T06:21:21.216Z,40.80
2023-01-27T06:23:49.796Z,49.30
2023-01-27T06:26:19.479Z,49.90
2023-01-27T06:28:47.835Z,49.30
2023-01-27T06:31:21.973Z,46.40
2023-01-27T06:33:53.580Z,43.20
2023-01-27T06:36:22.701Z,41.10
2023-01-27T06:38:51.528Z,39.90
2023-01-27T06:41:19.497Z,37.40
2023-01-27T06:43:47.329Z,55.60
2023-01-27T06:46:15.262Z,49.90
2023-01-27T06:48:43.240Z,50.60
2023-01-27T06:51:11.327Z,41.70
2023-01-27T06:53:39.164Z,46.40
2023-01-27T06:56:07.628Z,41.00
2023-01-27T06:58:35.552Z,37.70
2023-01-27T07:01:06.935Z,39.30
2023-01-27T07:03:37.666Z,40.70
2023-01-27T07:06:05.854Z,43.80
2023-01-27T07:08:33.771Z,40.80
2023-01-27T07:11:05.296Z,44.00
2023-01-27T07:13:33.307Z,42.60
2023-01-27T07:16:01.701Z,41.10
2023-01-27T07:18:30.040Z,45.60
2023-01-27T07:20:58.046Z,43.90
2023-01-27T07:23:25.989Z,41.80
2023-01-27T07:25:53.865Z,41.90
2023-01-27T07:28:21.751Z,48.30
2023-01-27T07:30:49.763Z,49.40
2023-01-27T07:33:17.736Z,41.40
2023-01-27T07:35:49.857Z,46.10
2023-01-27T07:38:18.052Z,46.30
2023-01-27T07:40:45.908Z,44.70
2023-01-27T07:43:13.930Z,40.60
2023-01-27T07:45:42.030Z,39.50
2023-01-27T07:48:10.291Z,52.30
2023-01-27T07:50:40.917Z,46.40
2023-01-27T07:53:10.503Z,44.80
2023-01-27T07:55:38.318Z,42.90
2023-01-27T07:58:06.555Z,44.50
2023-01-27T08:00:35.946Z,43.70
2023-01-27T08:03:05.510Z,37.10
2023-01-27T08:05:34.530Z,43.30
2023-01-27T08:08:04.542Z,42.00
2023-01-27T08:10:32.551Z,48.60
2023-01-27T08:13:00.408Z,40.20
2023-01-27T08:15:28.261Z,36.10
2023-01-27T08:17:57.361Z,40.50
2023-01-27T08:20:26.860Z,38.00
2023-01-27T08:22:55.061Z,45.30
2023-01-27T08:25:23.348Z,40.40
2023-01-27T08:27:52.492Z,38.80
2023-01-27T08:30:21.065Z,45.00
2023-01-27T08:32:49.115Z,43.80
2023-01-27T08:35:17.326Z,35.20
2023-01-27T08:37:48.301Z,41.30
2023-01-27T08:40:17.176Z,38.20
2023-01-27T08:42:45.083Z,35.30
2023-01-27T08:45:13.300Z,41.50
2023-01-27T08:47:41.266Z,35.00
2023-01-27T08:50:10.377Z,43.80
2023-01-27T08:52:38.689Z,39.40
2023-01-27T08:55:06.706Z,36.80
2023-01-27T08:57:36.861Z,38.10
2023-01-27T09:00:07.052Z,38.10
2023-01-27T09:02:35.950Z,32.40
2023-01-27T09:05:04.318Z,38.00
2023-01-27T09:07:33.372Z,38.90
2023-01-27T09:10:13.048Z,38.10
2023-01-27T09:12:42.834Z,41.40
2023-01-27T09:15:12.376Z,35.70
2023-01-27T09:17:41.017Z,35.00
2023-01-27T09:20:09.620Z,32.10
2023-01-27T09:22:42.146Z,31.80
2023-01-27T09:25:14.556Z,36.00
2023-01-27T09:27:43.674Z,31.50
2023-01-27T09:30:14.423Z,36.10
2023-01-27T09:32:42.773Z,32.90
2023-01-27T09:35:11.140Z,36.40
2023-01-27T09:37:48.088Z,33.70
2023-01-27T09:40:24.257Z,41.50
2023-01-27T09:43:13.715Z,37.20
2023-01-27T09:46:16.025Z,37.80
2023-01-27T09:49:12.045Z,33.50
2023-01-27T09:51:55.282Z,35.40
2023-01-27T09:54:35.204Z,40.40
2023-01-27T09:57:26.606Z,37.60
2023-01-27T10:00:08.373Z,40.60
2023-01-27T10:02:48.530Z,38.50
2023-01-27T10:05:38.233Z,33.30
2023-01-27T10:08:22.888Z,35.10
2023-01-27T10:11:06.134Z,37.50
2023-01-27T10:13:42.986Z,35.90
2023-01-27T10:16:29.709Z,44.30
2023-01-27T10:19:32.301Z,34.40
2023-01-27T10:22:31.487Z,33.10
2023-01-27T10:25:28.635Z,36.20
2023-01-27T10:27:58.727Z,41.70
2023-01-27T10:30:38.637Z,39.60
2023-01-27T10:33:19.758Z,42.40
2023-01-27T10:35:58.708Z,45.50
2023-01-27T10:38:27.221Z,44.30
2023-01-27T10:41:04.149Z,44.20
2023-01-27T10:43:56.994Z,39.70
2023-01-27T10:46:44.067Z,38.10
2023-01-27T10:49:38.469Z,35.90
2023-01-27T10:52:13.802Z,37.00
2023-01-27T10:54:54.016Z,39.90
2023-01-27T10:57:28.090Z,41.00
2023-01-27T11:00:49.237Z,41.40
2023-01-27T11:03:21.745Z,37.20
2023-01-27T11:05:53.360Z,39.40
2023-01-27T11:08:33.651Z,41.30
2023-01-27T11:11:23.883Z,43.50
2023-01-27T11:14:02.909Z,37.10
2023-01-27T11:19:10.997Z,44.40
2023-01-27T11:21:39.072Z,33.50
2023-01-27T11:24:31.417Z,42.80
2023-01-27T11:27:05.745Z,38.10
2023-01-27T11:29:41.259Z,34.60
2023-01-27T11:32:21.431Z,37.50
2023-01-27T11:35:01.373Z,31.00
2023-01-27T11:37:46.802Z,35.30
2023-01-27T11:40:24.007Z,44.40
2023-01-27T11:42:52.138Z,43.40
2023-01-27T11:45:21.143Z,53.50
2023-01-27T11:47:52.156Z,48.70
2023-01-27T11:50:21.220Z,65.30
2023-01-27T11:52:58.970Z,56.90
2023-01-27T11:55:29.254Z,60.10
2023-01-27T11:58:07.869Z,67.70
2023-01-27T12:00:43.088Z,74.00
2023-01-27T12:03:25.722Z,66.50
2023-01-27T12:06:01.360Z,71.70
2023-01-27T12:08:42.086Z,61.80
2023-01-27T12:11:36.330Z,72.20
2023-01-27T12:14:07.139Z,61.60
2023-01-27T12:16:46.152Z,64.50
2023-01-27T12:19:20.306Z,72.60
2023-01-27T12:21:52.452Z,75.40
2023-01-27T12:24:35.421Z,74.90
2023-01-27T12:27:04.509Z,65.20
2023-01-27T12:29:39.603Z,70.10
2023-01-27T12:32:20.409Z,69.30
2023-01-27T12:34:56.610Z,77.10
2023-01-27T12:37:29.718Z,75.60
2023-01-27T12:42:33.244Z,88.20
2023-01-27T12:45:02.288Z,70.90
2023-01-27T12:47:31.547Z,75.80
2023-01-27T12:50:25.294Z,71.80
2023-01-27T12:53:07.237Z,76.10
2023-01-27T12:55:39.554Z,79.50
2023-01-27T12:58:30.486Z,77.10
2023-01-27T13:01:01.284Z,80.40
2023-01-27T13:03:30.013Z,83.80
2023-01-27T13:05:59.478Z,84.60
2023-01-27T13:08:28.908Z,75.70
2023-01-27T13:10:58.916Z,76.80
2023-01-27T13:13:28.803Z,79.80
2023-01-27T13:16:06.487Z,77.00
2023-01-27T13:18:38.589Z,75.00
2023-01-27T13:21:14.354Z,74.30
2023-01-27T13:23:42.503Z,80.60
2023-01-27T13:26:12.293Z,77.00
2023-01-27T13:29:02.379Z,66.60
2023-01-27T13:31:35.875Z,75.40
2023-01-27T13:34:23.897Z,69.50
2023-01-27T13:37:20.130Z,76.30
2023-01-27T13:40:00.235Z,70.40
2023-01-27T13:42:40.212Z,73.10
2023-01-27T13:45:14.768Z,78.20
2023-01-27T13:47:53.192Z,72.60
2023-01-27T13:50:35.701Z,66.60
2023-01-27T13:53:04.105Z,75.50
2023-01-27T13:56:09.597Z,68.40
2023-01-27T13:58:56.003Z,69.50
2023-01-27T14:01:43.665Z,67.70
2023-01-27T14:04:30.716Z,75.80
2023-01-27T14:07:16.153Z,75.10
2023-01-27T14:10:15.479Z,71.20
2023-01-27T14:12:56.859Z,75.40
2023-01-27T14:15:30.086Z,65.50
2023-01-27T14:18:12.822Z,70.60
2023-01-27T14:20:40.829Z,74.10
2023-01-27T14:23:12.139Z,77.60
2023-01-27T14:26:02.426Z,76.70
2023-01-27T14:28:55.206Z,65.80
2023-01-27T14:31:30.759Z,73.90
2023-01-27T14:34:20.607Z,67.50
2023-01-27T14:36:55.765Z,75.50
2023-01-27T14:39:42.396Z,65.60
2023-01-27T14:42:17.557Z,65.40
2023-01-27T14:45:04.939Z,70.10
2023-01-27T14:47:53.800Z,63.50
2023-01-27T14:50:21.812Z,59.00
2023-01-27T14:52:49.908Z,69.60
2023-01-27T14:55:29.029Z,60.80
2023-01-27T15:00:42.429Z,55.10
2023-01-27T15:03:48.753Z,61.20
2023-01-27T15:06:34.637Z,64.90
2023-01-27T15:09:18.385Z,60.10
2023-01-27T15:12:12.517Z,51.20
2023-01-27T15:14:51.263Z,47.90
2023-01-27T15:17:50.416Z,46.30
2023-01-27T15:20:33.029Z,45.90
2023-01-27T15:23:09.428Z,41.40
2023-01-27T15:25:40.564Z,44.00
2023-01-27T15:28:17.189Z,50.80
2023-01-27T15:31:10.494Z,53.20
2023-01-27T15:34:15.448Z,54.30
2023-01-27T15:37:03.132Z,49.80
2023-01-27T15:39:40.792Z,51.00
2023-01-27T15:42:11.609Z,46.50
2023-01-27T15:44:41.887Z,50.40
2023-01-27T15:47:09.661Z,49.00
2023-01-27T15:49:47.359Z,53.30
2023-01-27T15:52:21.034Z,56.70
2023-01-27T15:54:51.047Z,54.90
2023-01-27T15:57:39.330Z,48.20
2023-01-27T16:00:25.690Z,48.40
2023-01-27T16:02:54.513Z,60.00
2023-01-27T16:05:27.899Z,53.50
2023-01-27T16:08:00.615Z,58.30
2023-01-27T16:10:31.419Z,67.70
2023-01-27T16:13:14.692Z,65.80
2023-01-27T16:15:42.993Z,61.70
2023-01-27T16:18:10.776Z,56.00
2023-01-27T16:21:11.007Z,62.70
2023-01-27T16:23:45.189Z,57.70
2023-01-27T16:26:33.031Z,53.80
2023-01-27T16:29:12.754Z,53.60
2023-01-27T16:31:42.110Z,51.80
2023-01-27T16:34:23.357Z,60.80
2023-01-27T16:37:13.646Z,58.30
2023-01-27T16:40:06.288Z,57.30
2023-01-27T16:42:44.600Z,54.20
2023-01-27T16:45:20.445Z,41.90
2023-01-27T16:47:59.072Z,49.00
2023-01-27T16:50:41.340Z,45.60
2023-01-27T16:53:20.768Z,43.50
2023-01-27T16:56:27.990Z,46.80
2023-01-27T16:59:07.569Z,52.50
2023-01-27T17:01:45.942Z,44.40
2023-01-27T17:04:25.608Z,46.50
2023-01-27T17:06:56.829Z,51.10
2023-01-27T17:09:27.395Z,42.90
2023-01-27T17:11:55.950Z,43.30
2023-01-27T17:14:36.452Z,58.00
2023-01-27T17:17:06.498Z,44.10
2023-01-27T17:19:36.492Z,49.40
2023-01-27T17:22:10.420Z,45.80
2023-01-27T17:24:43.676Z,42.60
2023-01-27T17:27:30.533Z,43.40
2023-01-27T17:30:13.913Z,43.20
2023-01-27T17:32:45.867Z,42.40
2023-01-27T17:35:25.850Z,49.70
2023-01-27T17:38:05.002Z,49.00
2023-01-27T17:40:37.527Z,46.20
2023-01-27T17:43:32.104Z,40.90
2023-01-27T17:46:06.237Z,41.20
2023-01-27T17:48:38.666Z,44.00
2023-01-27T17:51:08.099Z,41.50
2023-01-27T17:53:37.828Z,41.70
2023-01-27T17:56:18.636Z,50.50
2023-01-27T17:58:50.743Z,46.20
2023-01-27T18:01:19.158Z,42.10
2023-01-27T18:03:48.904Z,38.60
2023-01-27T18:06:18.618Z,41.40
2023-01-27T18:08:54.902Z,36.70
2023-01-27T18:11:31.671Z,40.80
2023-01-27T18:14:08.079Z,44.70
2023-01-27T18:16:36.281Z,46.60
2023-01-27T18:19:19.386Z,48.40
2023-01-27T18:21:48.260Z,52.40
2023-01-27T18:24:20.236Z,65.10
2023-01-27T18:26:49.330Z,63.00
2023-01-27T18:29:23.078Z,54.30
2023-01-27T18:31:59.480Z,56.60
2023-01-27T18:34:32.713Z,49.80
2023-01-27T18:37:06.453Z,50.70
2023-01-27T18:39:39.397Z,41.30
2023-01-27T18:42:15.297Z,42.60
2023-01-27T18:44:44.790Z,47.80
2023-01-27T18:47:19.506Z,41.80
2023-01-27T18:50:10.836Z,46.10
2023-01-27T18:52:39.795Z,55.80
2023-01-27T18:55:21.374Z,60.00
2023-01-27T18:57:52.839Z,55.50
2023-01-27T19:00:23.332Z,41.80
2023-01-27T19:02:53.979Z,43.00
2023-01-27T19:05:24.472Z,43.80
2023-01-27T19:07:52.659Z,37.90
2023-01-27T19:10:28.990Z,37.90
2023-01-27T19:12:59.170Z,45.40
2023-01-27T19:15:29.146Z,44.30
2023-01-27T19:17:59.057Z,44.20
2023-01-27T19:20:29.528Z,46.60
2023-01-27T19:22:58.761Z,38.30
2023-01-27T19:25:28.706Z,37.20
2023-01-27T19:28:02.231Z,39.90
2023-01-27T19:30:38.736Z,36.90
2023-01-27T19:33:27.037Z,40.20
2023-01-27T19:36:34.206Z,46.90
2023-01-27T19:39:12.066Z,40.90
2023-01-27T19:41:40.714Z,37.70
2023-01-27T19:44:10.639Z,40.30
2023-01-27T19:46:39.836Z,40.30
2023-01-27T19:49:20.722Z,43.10
2023-01-27T19:51:48.897Z,46.20
2023-01-27T19:54:17.381Z,45.60
2023-01-27T19:56:45.657Z,43.30
2023-01-27T20:01:46.818Z,41.70
2023-01-27T20:04:14.822Z,42.80
2023-01-27T20:06:43.084Z,38.50
2023-01-27T20:09:11.489Z,40.70
2023-01-27T20:11:43.816Z,48.00
2023-01-27T20:14:13.983Z,40.70
2023-01-27T20:16:42.962Z,47.40
2023-01-27T20:19:15.143Z,47.80
2023-01-27T20:21:44.743Z,44.20
2023-01-27T20:24:16.580Z,41.80
2023-01-27T20:26:44.842Z,45.30
2023-01-27T20:29:14.452Z,47.90
2023-01-27T20:31:42.816Z,46.30
2023-01-27T20:34:11.200Z,49.30
2023-01-27T20:36:39.955Z,49.60
2023-01-27T20:39:07.934Z,50.40
2023-01-27T20:41:36.069Z,47.40
2023-01-27T20:44:04.657Z,44.50
2023-01-27T20:46:32.596Z,47.10
2023-01-27T20:49:00.808Z,47.30
2023-01-27T20:51:29.002Z,48.10
2023-01-27T20:53:58.093Z,48.70
2023-01-27T20:56:26.046Z,52.30
2023-01-27T20:58:54.435Z,51.40
2023-01-27T21:01:24.052Z,42.10
2023-01-27T21:03:52.090Z,37.30
2023-01-27T21:06:20.127Z,39.40
2023-01-27T21:08:49.653Z,40.00
2023-01-27T21:11:20.137Z,35.70
2023-01-27T21:16:19.615Z,36.70
2023-01-27T21:18:47.668Z,47.10
2023-01-27T21:21:25.416Z,45.80
2023-01-27T21:23:54.639Z,41.50
2023-01-27T21:26:23.343Z,37.70
2023-01-27T21:28:51.386Z,37.30
2023-01-27T21:31:24.326Z,46.10
2023-01-27T21:33:52.911Z,45.40
2023-01-27T21:36:21.028Z,45.20
2023-01-27T21:38:50.822Z,44.90
2023-01-27T21:41:40.131Z,44.90
2023-01-27T21:44:46.856Z,41.00
2023-01-27T21:47:19.072Z,41.60
2023-01-27T21:50:04.306Z,35.20
2023-01-27T21:55:06.727Z,42.30
2023-01-27T21:57:35.372Z,36.70
2023-01-27T22:00:06.495Z,34.20
2023-01-27T22:02:36.140Z,38.20
2023-01-27T22:05:04.498Z,35.70
2023-01-27T22:07:38.339Z,37.10
2023-01-27T22:10:14.322Z,35.60
2023-01-27T22:12:42.673Z,35.90
2023-01-27T22:15:11.904Z,39.50
2023-01-27T22:17:40.301Z,32.70
2023-01-27T22:20:14.494Z,39.20
2023-01-27T22:22:43.960Z,39.50
2023-01-27T22:25:13.762Z,39.50
2023-01-27T22:27:42.984Z,31.30
2023-01-27T22:30:18.538Z,40.00
2023-01-27T22:32:47.870Z,33.90
2023-01-27T22:35:17.956Z,36.20
2023-01-27T22:37:46.879Z,35.90
2023-01-27T22:40:15.340Z,43.90
2023-01-27T22:42:43.180Z,38.20
2023-01-27T22:45:11.165Z,36.50
2023-01-27T22:47:39.003Z,37.10
2023-01-27T22:50:07.870Z,35.90
2023-01-27T22:52:38.635Z,35.70
2023-01-27T22:55:10.545Z,33.10
2023-01-27T22:57:38.749Z,36.20
2023-01-27T23:00:07.633Z,39.30
2023-01-27T23:02:35.886Z,43.80
2023-01-27T23:05:05.361Z,40.40
2023-01-27T23:07:33.254Z,40.50
2023-01-27T23:10:01.221Z,36.50
2023-01-27T23:12:29.076Z,34.00
2023-01-27T23:14:59.081Z,37.50
2023-01-27T23:17:27.006Z,36.40
2023-01-27T23:19:55.073Z,35.90
2023-01-27T23:22:22.973Z,33.80
2023-01-27T23:24:51.192Z,48.40
2023-01-27T23:27:19.448Z,39.50
2023-01-27T23:29:47.356Z,34.80
2023-01-27T23:32:15.521Z,37.70
2023-01-27T23:34:43.366Z,35.40
2023-01-27T23:37:11.231Z,34.10
2023-01-27T23:39:39.117Z,35.10
2023-01-27T23:42:07.750Z,35.30
2023-01-27T23:44:35.559Z,32.10
2023-01-27T23:47:03.515Z,42.50
2023-01-27T23:49:31.549Z,37.50
2023-01-27T23:51:59.462Z,34.30
2023-01-27T23:54:27.361Z,31.00
2023-01-27T23:56:55.163Z,29.20
2023-01-27T23:59:23.014Z,28.20
